createdAt,value
2019-02-05T00:02:26.518Z,5.50
2019-02-05T00:04:59.173Z,8.63
2019-02-05T00:07:32.269Z,6.33
2019-02-05T00:10:05.263Z,7.57
2019-02-05T00:12:37.889Z,5.30
2019-02-05T00:15:10.527Z,5.10
2019-02-05T00:17:43.234Z,8.53
2019-02-05T00:20:15.866Z,10.40
2019-02-05T00:22:48.486Z,7.30
2019-02-05T00:25:21.906Z,7.07
2019-02-05T00:27:54.599Z,7.30
2019-02-05T00:30:27.350Z,9.33
2019-02-05T00:32:59.967Z,9.47
2019-02-05T00:35:32.605Z,6.60
2019-02-05T00:38:05.230Z,5.70
2019-02-05T00:40:37.874Z,6.23
2019-02-05T00:43:10.869Z,11.90
2019-02-05T00:45:43.522Z,7.10
2019-02-05T00:48:16.154Z,8.47
2019-02-05T00:50:48.790Z,7.10
2019-02-05T00:53:21.415Z,5.57
2019-02-05T00:55:54.097Z,7.97
2019-02-05T00:58:26.723Z,6.90
2019-02-05T01:00:59.442Z,7.77
2019-02-05T01:03:32.123Z,7.00
2019-02-05T01:06:05.232Z,7.20
2019-02-05T01:08:37.862Z,7.30
2019-02-05T01:11:10.507Z,7.97
2019-02-05T01:13:43.170Z,6.63
2019-02-05T01:16:15.873Z,8.47
2019-02-05T01:18:48.498Z,7.00
2019-02-05T01:21:21.157Z,6.57
2019-02-05T01:23:53.776Z,7.23
2019-02-05T01:26:29.412Z,6.17
2019-02-05T01:29:00.825Z,6.77
2019-02-05T01:31:33.473Z,6.07
2019-02-05T01:34:06.093Z,6.93
2019-02-05T01:36:38.746Z,8.53
2019-02-05T01:39:11.407Z,6.17
2019-02-05T01:41:44.039Z,7.17
2019-02-05T01:44:16.761Z,8.07
2019-02-05T01:46:49.415Z,6.73
2019-02-05T01:49:22.050Z,5.90
2019-02-05T01:51:54.693Z,6.90
2019-02-05T01:54:27.346Z,8.37
2019-02-05T01:57:00.078Z,7.60
2019-02-05T01:59:32.814Z,6.77
2019-02-05T02:02:05.464Z,7.13
2019-02-05T02:04:38.368Z,6.70
2019-02-05T02:07:11.030Z,5.93
2019-02-05T02:09:43.762Z,9.67
2019-02-05T02:12:16.401Z,9.57
2019-02-05T02:15:28.314Z,7.40
2019-02-05T02:18:00.956Z,7.63
2019-02-05T02:20:33.607Z,9.97
2019-02-05T02:23:06.265Z,8.53
2019-02-05T02:25:38.960Z,10.90
2019-02-05T02:28:11.637Z,9.20
2019-02-05T02:30:44.255Z,9.77
2019-02-05T02:33:16.901Z,12.97
2019-02-05T02:49:01.214Z,12.73
2019-02-05T02:51:33.853Z,12.33
2019-02-05T02:54:06.562Z,10.23
2019-02-05T02:56:39.204Z,10.13
2019-02-05T02:59:11.859Z,12.47
2019-02-05T03:01:44.647Z,13.73
2019-02-05T03:04:17.286Z,12.60
2019-02-05T03:06:49.929Z,12.20
2019-02-05T03:09:22.591Z,14.47
2019-02-05T03:11:55.257Z,11.07
2019-02-05T03:14:27.961Z,13.87
2019-02-05T03:17:00.673Z,11.53
2019-02-05T03:19:33.365Z,13.13
2019-02-05T03:22:06.100Z,15.37
2019-02-05T03:24:38.767Z,11.40
2019-02-05T03:27:32.968Z,13.10
2019-02-05T03:29:45.838Z,13.03
2019-02-05T03:32:18.919Z,15.53
2019-02-05T03:34:51.570Z,13.50
2019-02-05T03:37:24.263Z,13.93
2019-02-05T03:39:56.959Z,14.83
2019-02-05T03:42:29.610Z,19.80
2019-02-05T03:45:02.574Z,13.83
2019-02-05T03:47:35.307Z,15.87
2019-02-05T03:50:07.975Z,11.67
2019-02-05T03:52:49.388Z,12.20
2019-02-05T03:55:29.767Z,15.07
2019-02-05T03:58:33.435Z,12.23
2019-02-05T04:01:35.819Z,13.30
2019-02-05T04:04:49.055Z,11.80
2019-02-05T04:07:59.125Z,14.03
2019-02-05T04:11:00.317Z,14.30
2019-02-05T04:14:35.653Z,16.13
2019-02-05T04:17:51.390Z,14.10
2019-02-05T04:20:46.890Z,12.47
2019-02-05T04:23:59.944Z,13.13
2019-02-05T04:27:13.822Z,11.23
2019-02-05T04:30:20.869Z,15.70
2019-02-05T04:33:19.251Z,15.20
2019-02-05T04:36:20.684Z,12.63
2019-02-05T04:39:27.316Z,11.87
2019-02-05T04:42:52.258Z,15.57
2019-02-05T04:46:09.467Z,13.93
2019-02-05T04:49:02.777Z,13.67
2019-02-05T04:51:53.054Z,14.67
2019-02-05T04:55:03.420Z,11.67
2019-02-05T04:58:16.236Z,13.07
2019-02-05T05:01:54.848Z,12.30
2019-02-05T05:04:49.302Z,12.67
2019-02-05T05:08:06.910Z,10.87
2019-02-05T05:10:39.633Z,11.27
2019-02-05T05:13:12.302Z,13.23
2019-02-05T05:15:44.963Z,11.83
2019-02-05T05:18:17.911Z,10.90
2019-02-05T05:20:50.598Z,10.03
2019-02-05T05:23:23.295Z,10.90
2019-02-05T05:25:56.018Z,17.53
2019-02-05T05:28:28.705Z,12.50
2019-02-05T05:31:01.442Z,12.83
2019-02-05T05:33:34.142Z,14.77
2019-02-05T05:36:06.847Z,16.00
2019-02-05T05:38:39.559Z,13.37
2019-02-05T05:41:12.233Z,10.50
2019-02-05T05:43:44.891Z,16.80
2019-02-05T05:46:17.534Z,12.93
2019-02-05T05:48:50.299Z,11.77
2019-02-05T05:51:22.979Z,10.93
2019-02-05T05:53:55.638Z,16.77
2019-02-05T05:56:30.884Z,17.97
2019-02-05T05:59:03.731Z,11.93
2019-02-05T06:01:36.472Z,12.90
2019-02-05T06:04:09.179Z,12.33
2019-02-05T06:06:41.868Z,9.67
2019-02-05T06:09:14.946Z,10.10
2019-02-05T06:11:47.839Z,12.57
2019-02-05T06:14:20.561Z,7.63
2019-02-05T06:16:53.216Z,10.23
2019-02-05T06:19:26.255Z,10.40
2019-02-05T06:21:58.925Z,10.23
2019-02-05T06:24:34.380Z,11.33
2019-02-05T06:27:07.352Z,12.23
2019-02-05T06:29:40.245Z,10.37
2019-02-05T06:32:13.312Z,9.13
2019-02-05T06:34:46.005Z,12.60
2019-02-05T06:37:24.183Z,10.80
2019-02-05T06:39:56.871Z,11.37
2019-02-05T06:42:29.775Z,8.90
2019-02-05T06:45:02.570Z,8.83
2019-02-05T06:47:35.364Z,9.67
2019-02-05T06:50:08.695Z,11.23
2019-02-05T06:52:43.062Z,12.27
2019-02-05T06:55:16.263Z,10.20
2019-02-05T06:57:51.919Z,12.17
2019-02-05T07:00:24.684Z,10.87
2019-02-05T07:02:57.360Z,11.13
2019-02-05T07:05:30.243Z,9.17
2019-02-05T07:08:02.997Z,12.83
2019-02-05T07:10:35.703Z,8.53
2019-02-05T07:13:08.497Z,9.70
2019-02-05T07:15:41.291Z,10.37
2019-02-05T07:18:14.058Z,10.07
2019-02-05T07:20:46.750Z,10.03
2019-02-05T07:23:19.404Z,9.27
2019-02-05T07:25:52.082Z,11.20
2019-02-05T07:28:24.762Z,13.07
2019-02-05T07:30:57.531Z,11.77
2019-02-05T07:33:30.189Z,11.87
2019-02-05T07:36:02.938Z,12.57
2019-02-05T07:38:35.612Z,11.83
2019-02-05T07:41:08.488Z,10.40
2019-02-05T07:43:41.233Z,12.23
2019-02-05T07:46:14.370Z,15.57
2019-02-05T07:48:47.040Z,14.00
2019-02-05T07:51:32.332Z,16.83
2019-02-05T07:54:05.035Z,12.40
2019-02-05T07:56:38.209Z,14.77
2019-02-05T07:59:10.860Z,11.70
2019-02-05T08:01:43.604Z,13.73
2019-02-05T08:04:16.261Z,14.07
2019-02-05T08:06:48.943Z,11.90
2019-02-05T08:09:21.975Z,14.80
2019-02-05T08:11:54.654Z,16.97
2019-02-05T08:14:27.398Z,13.37
2019-02-05T08:17:00.066Z,11.70
2019-02-05T08:19:32.802Z,13.53
2019-02-05T08:22:05.474Z,11.70
2019-02-05T08:24:38.573Z,15.00
2019-02-05T08:27:11.234Z,13.70
2019-02-05T08:29:43.930Z,14.73
2019-02-05T08:32:16.612Z,12.63
2019-02-05T08:34:49.366Z,12.93
2019-02-05T08:37:22.462Z,12.00
2019-02-05T08:39:55.115Z,12.20
2019-02-05T08:42:27.836Z,14.60
2019-02-05T08:45:00.516Z,12.53
2019-02-05T08:47:33.363Z,11.97
2019-02-05T08:50:09.354Z,17.07
2019-02-05T08:52:42.095Z,12.90
2019-02-05T08:55:16.034Z,14.00
2019-02-05T08:57:49.622Z,15.07
2019-02-05T09:00:24.354Z,13.83
2019-02-05T09:02:57.046Z,16.27
2019-02-05T09:05:29.722Z,17.50
2019-02-05T09:08:02.538Z,16.63
2019-02-05T09:10:35.235Z,16.73
2019-02-05T09:13:07.918Z,18.60
2019-02-05T09:15:40.571Z,16.23
2019-02-05T09:18:13.263Z,18.70
2019-02-05T09:20:45.993Z,15.30
2019-02-05T09:23:18.757Z,15.53
2019-02-05T09:25:51.499Z,17.03
2019-02-05T09:28:24.167Z,18.10
2019-02-05T09:30:56.921Z,17.03
2019-02-05T09:33:29.668Z,15.67
2019-02-05T09:36:02.431Z,16.73
2019-02-05T09:38:35.110Z,17.43
2019-02-05T09:41:07.762Z,17.53
2019-02-05T09:43:40.518Z,16.27
2019-02-05T09:46:13.274Z,17.07
2019-02-05T09:48:45.972Z,15.30
2019-02-05T09:51:18.697Z,13.67
2019-02-05T09:53:51.403Z,17.77
2019-02-05T09:56:24.129Z,19.30
2019-02-05T09:58:56.808Z,19.50
2019-02-05T10:01:29.482Z,17.13
2019-02-05T10:04:02.231Z,18.43
2019-02-05T10:06:34.914Z,14.83
2019-02-05T10:09:08.139Z,18.93
2019-02-05T10:11:40.834Z,17.37
2019-02-05T10:14:13.579Z,36.27
2019-02-05T10:16:46.262Z,17.40
2019-02-05T10:19:18.983Z,16.20
2019-02-05T10:21:51.660Z,18.73
2019-02-05T10:24:24.348Z,18.93
2019-02-05T10:26:57.083Z,19.10
2019-02-05T10:29:29.746Z,18.23
2019-02-05T10:32:02.473Z,15.67
2019-02-05T10:34:35.296Z,18.70
2019-02-05T10:37:08.496Z,18.47
2019-02-05T10:39:41.218Z,17.33
2019-02-05T10:42:17.530Z,19.00
2019-02-05T10:44:50.668Z,18.33
2019-02-05T10:47:23.385Z,16.07
2019-02-05T10:49:56.346Z,11.83
2019-02-05T10:52:29.141Z,13.77
2019-02-05T10:55:04.001Z,12.50
2019-02-05T10:57:37.375Z,13.90
2019-02-05T11:00:16.293Z,12.37
2019-02-05T11:02:49.383Z,14.83
2019-02-05T11:05:23.918Z,11.10
2019-02-05T11:07:56.598Z,14.43
2019-02-05T11:10:29.265Z,13.43
2019-02-05T11:13:02.014Z,10.93
2019-02-05T11:15:34.667Z,13.90
2019-02-05T11:18:08.749Z,15.33
2019-02-05T11:20:41.487Z,12.87
2019-02-05T11:23:14.163Z,12.37
2019-02-05T11:25:46.831Z,14.13
2019-02-05T11:28:19.482Z,13.03
2019-02-05T11:30:52.187Z,14.43
2019-02-05T11:33:24.921Z,16.70
2019-02-05T11:35:57.657Z,20.03
2019-02-05T11:38:30.364Z,14.47
2019-02-05T11:41:03.054Z,18.83
2019-02-05T11:43:35.726Z,14.13
2019-02-05T11:46:08.402Z,17.47
2019-02-05T11:48:41.154Z,14.07
2019-02-05T11:51:13.897Z,17.60
2019-02-05T11:53:46.627Z,18.50
2019-02-05T11:56:19.294Z,15.73
2019-02-05T11:58:51.954Z,20.63
2019-02-05T12:01:24.691Z,17.77
2019-02-05T12:03:57.395Z,15.77
2019-02-05T12:06:30.112Z,13.27
2019-02-05T12:09:02.927Z,14.57
2019-02-05T12:11:35.663Z,15.53
2019-02-05T12:14:08.323Z,16.97
2019-02-05T12:16:41.014Z,13.87
2019-02-05T12:19:13.683Z,16.13
2019-02-05T12:21:46.433Z,14.90
2019-02-05T12:24:19.284Z,15.30
2019-02-05T12:26:51.958Z,18.47
2019-02-05T12:29:24.629Z,13.97
2019-02-05T12:31:57.297Z,15.53
2019-02-05T12:34:29.946Z,18.47
2019-02-05T12:37:02.608Z,14.40
2019-02-05T12:39:35.277Z,15.57
2019-02-05T12:42:07.982Z,15.73
2019-02-05T12:44:40.654Z,13.37
2019-02-05T12:47:13.337Z,12.70
2019-02-05T12:49:46.003Z,13.83
2019-02-05T12:52:18.682Z,12.53
2019-02-05T12:54:51.352Z,15.43
2019-02-05T12:57:24.050Z,12.00
2019-02-05T12:59:56.798Z,14.57
2019-02-05T13:02:29.478Z,13.40
2019-02-05T13:05:02.156Z,13.27
2019-02-05T13:07:34.843Z,14.07
2019-02-05T13:10:09.505Z,14.53
2019-02-05T13:12:42.464Z,12.67
2019-02-05T13:15:15.122Z,14.40
2019-02-05T13:17:47.913Z,13.17
2019-02-05T13:20:22.686Z,13.23
2019-02-05T13:22:55.362Z,13.53
2019-02-05T13:25:28.471Z,17.43
2019-02-05T13:28:01.271Z,14.83
2019-02-05T13:30:34.088Z,16.07
2019-02-05T13:33:07.045Z,11.77
2019-02-05T13:35:40.101Z,13.03
2019-02-05T13:38:12.784Z,14.17
2019-02-05T13:40:45.539Z,17.10
2019-02-05T13:43:18.202Z,12.80
2019-02-05T13:45:51.849Z,12.73
2019-02-05T13:48:24.543Z,12.20
2019-02-05T13:50:57.265Z,12.30
2019-02-05T13:53:29.925Z,13.80
2019-02-05T13:56:05.293Z,12.80
2019-02-05T13:58:37.110Z,12.57
2019-02-05T14:01:19.598Z,12.23
2019-02-05T14:03:44.160Z,15.07
2019-02-05T14:06:16.841Z,18.63
2019-02-05T14:08:49.514Z,13.43
2019-02-05T14:11:22.151Z,13.60
2019-02-05T14:13:54.848Z,14.47
2019-02-05T14:16:27.499Z,15.17
2019-02-05T14:19:00.262Z,13.93
2019-02-05T14:21:32.970Z,13.53
2019-02-05T14:24:05.658Z,14.50
2019-02-05T14:26:38.346Z,15.57
2019-02-05T14:29:11.021Z,15.43
2019-02-05T14:31:43.669Z,14.50
2019-02-05T14:34:17.040Z,13.43
2019-02-05T14:36:49.741Z,15.30
2019-02-05T14:39:22.437Z,14.83
2019-02-05T14:41:55.122Z,12.90
2019-02-05T14:44:27.778Z,12.40
2019-02-05T14:47:00.445Z,12.23
2019-02-05T14:49:33.151Z,13.47
2019-02-05T14:52:05.865Z,15.20
2019-02-05T14:54:38.552Z,12.97
2019-02-05T14:57:11.207Z,15.60
2019-02-05T14:59:43.890Z,13.07
2019-02-05T15:02:16.549Z,14.20
2019-02-05T15:04:49.226Z,16.73
2019-02-05T15:07:21.906Z,16.47
2019-02-05T15:09:54.897Z,15.60
2019-02-05T15:12:27.550Z,14.70
2019-02-05T15:15:00.318Z,19.57
2019-02-05T15:17:33.019Z,16.07
2019-02-05T15:20:15.028Z,13.57
2019-02-05T15:22:47.717Z,15.47
2019-02-05T15:25:20.381Z,11.90
2019-02-05T15:27:53.045Z,12.53
2019-02-05T15:30:36.755Z,11.40
2019-02-05T15:33:11.386Z,13.00
2019-02-05T15:35:44.059Z,12.30
2019-02-05T15:38:16.693Z,14.40
2019-02-05T15:40:49.829Z,12.07
2019-02-05T15:43:22.513Z,12.57
2019-02-05T15:45:55.244Z,13.57
2019-02-05T15:48:27.910Z,12.90
2019-02-05T15:51:00.594Z,11.23
2019-02-05T15:53:33.268Z,11.67
2019-02-05T15:56:06.050Z,13.53
2019-02-05T15:58:38.719Z,12.27
2019-02-05T16:01:11.438Z,14.27
2019-02-05T16:03:44.134Z,13.83
2019-02-05T16:06:16.777Z,12.40
2019-02-05T16:08:49.439Z,17.40
2019-02-05T16:11:22.101Z,16.97
2019-02-05T16:13:55.027Z,14.40
2019-02-05T16:16:28.210Z,13.83
2019-02-05T16:19:00.900Z,14.07
2019-02-05T16:21:33.592Z,12.77
2019-02-05T16:24:06.243Z,13.83
2019-02-05T16:26:39.096Z,13.43
2019-02-05T16:29:11.889Z,12.03
2019-02-05T16:31:44.574Z,12.23
2019-02-05T16:34:17.261Z,11.10
2019-02-05T16:36:49.944Z,13.13
2019-02-05T16:39:22.687Z,14.23
2019-02-05T16:41:55.351Z,14.50
2019-02-05T16:44:28.078Z,15.03
2019-02-05T16:47:00.746Z,13.90
2019-02-05T16:49:33.507Z,14.30
2019-02-05T16:52:06.698Z,14.50
2019-02-05T16:54:39.435Z,14.40
2019-02-05T16:57:12.158Z,14.47
2019-02-05T16:59:44.811Z,16.07
2019-02-05T17:02:28.429Z,14.10
2019-02-05T17:04:51.891Z,12.23
2019-02-05T17:07:24.567Z,14.57
2019-02-05T17:09:57.223Z,12.93
2019-02-05T17:12:29.905Z,14.27
2019-02-05T17:15:02.601Z,15.43
2019-02-05T17:17:35.266Z,14.17
2019-02-05T17:20:10.337Z,17.47
2019-02-05T17:22:43.021Z,12.83
2019-02-05T17:25:17.015Z,13.03
2019-02-05T17:27:50.015Z,15.27
2019-02-05T17:30:24.648Z,15.00
2019-02-05T17:32:57.324Z,19.33
2019-02-05T17:35:30.019Z,15.70
2019-02-05T17:38:02.754Z,18.30
2019-02-05T17:40:35.525Z,25.37
2019-02-05T17:43:08.203Z,22.40
2019-02-05T17:45:41.017Z,15.97
2019-02-05T17:48:15.547Z,20.70
2019-02-05T17:50:48.494Z,18.97
2019-02-05T17:53:21.427Z,20.37
2019-02-05T17:55:54.183Z,19.13
2019-02-05T17:58:26.890Z,17.73
2019-02-05T18:00:59.561Z,21.33
2019-02-05T18:03:32.270Z,19.37
2019-02-05T18:06:05.203Z,21.50
2019-02-05T18:08:37.891Z,18.70
2019-02-05T18:11:10.546Z,19.67
2019-02-05T18:13:43.642Z,23.70
2019-02-05T18:16:17.605Z,21.03
2019-02-05T18:18:50.313Z,20.50
2019-02-05T18:21:22.960Z,26.07
2019-02-05T18:23:55.638Z,20.53
2019-02-05T18:26:28.298Z,22.07
2019-02-05T18:29:00.986Z,20.40
2019-02-05T18:31:33.640Z,19.63
2019-02-05T18:34:06.323Z,19.03
2019-02-05T18:36:38.991Z,19.43
2019-02-05T18:39:11.719Z,18.13
2019-02-05T18:41:44.480Z,19.20
2019-02-05T18:44:17.206Z,20.50
2019-02-05T18:46:49.847Z,23.40
2019-02-05T18:49:22.955Z,20.83
2019-02-05T18:51:55.613Z,19.23
2019-02-05T18:54:28.299Z,21.73
2019-02-05T18:57:00.975Z,20.57
2019-02-05T18:59:33.684Z,21.97
2019-02-05T19:02:06.418Z,20.67
2019-02-05T19:04:39.121Z,21.53
2019-02-05T19:07:11.794Z,21.53
2019-02-05T19:09:44.578Z,19.67
2019-02-05T19:12:17.315Z,21.30
2019-02-05T19:14:50.083Z,19.63
2019-02-05T19:17:22.763Z,17.83
2019-02-05T19:19:55.441Z,19.47
2019-02-05T19:22:28.144Z,22.43
2019-02-05T19:25:01.191Z,23.30
2019-02-05T19:27:33.844Z,21.37
2019-02-05T19:30:07.726Z,21.53
2019-02-05T19:32:40.415Z,19.93
2019-02-05T19:35:13.098Z,19.33
2019-02-05T19:37:45.813Z,19.57
2019-02-05T19:40:18.504Z,19.23
2019-02-05T19:42:51.172Z,19.23
2019-02-05T19:45:23.883Z,20.10
2019-02-05T19:47:56.636Z,20.50
2019-02-05T19:50:29.302Z,21.47
2019-02-05T19:53:01.963Z,19.33
2019-02-05T19:55:34.634Z,21.80
2019-02-05T19:58:07.306Z,20.57
2019-02-05T20:00:39.983Z,18.23
2019-02-05T20:03:12.644Z,21.40
2019-02-05T20:05:45.319Z,18.23
2019-02-05T20:08:17.982Z,22.03
2019-02-05T20:10:50.659Z,24.70
2019-02-05T20:13:23.330Z,18.80
2019-02-05T20:15:56.273Z,22.07
2019-02-05T20:18:28.950Z,23.73
2019-02-05T20:21:01.617Z,17.97
2019-02-05T20:23:34.286Z,19.60
2019-02-05T20:26:06.960Z,23.73
2019-02-05T20:28:40.296Z,22.23
2019-02-05T20:31:12.963Z,20.53
2019-02-05T20:33:49.876Z,18.90
2019-02-05T20:36:20.050Z,18.97
2019-02-05T20:38:52.796Z,20.50
2019-02-05T20:41:25.784Z,17.80
2019-02-05T20:43:58.454Z,20.00
2019-02-05T20:46:31.118Z,16.93
2019-02-05T20:49:04.182Z,15.93
2019-02-05T20:51:36.862Z,17.73
2019-02-05T20:54:09.805Z,15.30
2019-02-05T20:56:42.485Z,17.53
2019-02-05T20:59:15.165Z,15.60
2019-02-05T21:01:47.902Z,15.83
2019-02-05T21:04:20.554Z,16.40
2019-02-05T21:06:53.513Z,13.03
2019-02-05T21:09:26.162Z,14.37
2019-02-05T21:11:58.826Z,15.33
2019-02-05T21:14:31.503Z,13.43
2019-02-05T21:17:04.295Z,15.10
2019-02-05T21:19:37.326Z,12.40
2019-02-05T21:22:09.991Z,14.17
2019-02-05T21:24:42.668Z,13.77
2019-02-05T21:27:15.336Z,16.80
2019-02-05T21:29:48.082Z,15.37
2019-02-05T21:32:21.116Z,11.63
2019-02-05T21:34:53.790Z,11.17
2019-02-05T21:37:26.572Z,12.73
2019-02-05T21:40:02.479Z,10.60
2019-02-05T21:42:33.613Z,13.30
2019-02-05T21:45:08.378Z,13.43
2019-02-05T21:47:41.085Z,15.93
2019-02-05T21:50:15.787Z,14.57
2019-02-05T21:52:48.746Z,16.73
2019-02-05T21:55:21.960Z,17.10
2019-02-05T21:57:54.639Z,16.57
2019-02-05T22:00:28.468Z,16.07
2019-02-05T22:03:01.194Z,18.30
2019-02-05T22:05:33.969Z,14.97
2019-02-05T22:08:08.780Z,16.27
2019-02-05T22:10:41.282Z,18.00
2019-02-05T22:13:14.019Z,16.77
2019-02-05T22:15:46.682Z,22.40
2019-02-05T22:18:19.478Z,17.63
2019-02-05T22:20:52.147Z,20.50
2019-02-05T22:23:25.205Z,18.37
2019-02-05T22:25:57.865Z,17.67
2019-02-05T22:28:30.540Z,18.07
2019-02-05T22:31:03.475Z,17.40
2019-02-05T22:33:36.173Z,19.60
2019-02-05T22:36:09.274Z,19.30
2019-02-05T22:38:41.937Z,17.73
2019-02-05T22:41:14.680Z,17.70
2019-02-05T22:43:47.385Z,16.90
2019-02-05T22:46:20.042Z,16.20
2019-02-05T22:48:52.735Z,19.20
2019-02-05T22:51:25.395Z,16.60
2019-02-05T22:53:58.090Z,16.77
2019-02-05T22:56:30.849Z,16.00
2019-02-05T22:59:04.063Z,15.80
2019-02-05T23:01:46.980Z,17.20
2019-02-05T23:04:37.378Z,20.10
2019-02-05T23:07:16.805Z,16.27
2019-02-05T23:10:20.518Z,17.13
2019-02-05T23:13:11.114Z,17.77
2019-02-05T23:15:45.946Z,14.77
2019-02-05T23:18:18.824Z,15.43
2019-02-05T23:20:53.899Z,16.83
2019-02-05T23:23:25.922Z,14.87
2019-02-05T23:25:58.615Z,14.07
2019-02-05T23:28:31.294Z,17.27
2019-02-05T23:31:04.050Z,14.23
2019-02-05T23:33:36.702Z,19.00
2019-02-05T23:36:09.370Z,16.73
2019-02-05T23:38:42.449Z,14.93
2019-02-05T23:41:15.663Z,17.53
2019-02-05T23:43:48.429Z,13.93
2019-02-05T23:46:21.168Z,19.47
2019-02-05T23:48:53.849Z,12.63
2019-02-05T23:51:26.531Z,14.27
2019-02-05T23:53:59.394Z,13.50
2019-02-05T23:56:32.138Z,14.60
2019-02-05T23:59:07.829Z,16.10
